Time;durP1;ratioP1;P1;durP2;ratioP2;P2;SDS_P1;SDS_P2;PMS_P1;PMS_P2;Temp;Humidity;BMP_temperature;BMP_pressure;BME280_temperature;BME280_humidity;BME280_pressure;Samples;Min_cycle;Max_cycle;Signal;HPM_P1;HPM_P2
2022/08/10 00:01:15;;;;;;;1.05;0.80;;;;;;;;;;1855622;76;26352;-43
2022/08/10 00:03:44;;;;;;;0.80;0.80;;;;;;;;;;1861759;76;27383;-43
2022/08/10 00:06:12;;;;;;;0.70;0.70;;;;;;;;;;1860032;76;26741;-45
2022/08/10 00:08:40;;;;;;;0.88;0.60;;;;;;;;;;1851365;76;26309;-45
2022/08/10 00:11:07;;;;;;;0.72;0.72;;;;;;;;;;1847604;76;26292;-47
2022/08/10 00:13:35;;;;;;;1.02;0.70;;;;;;;;;;1851903;76;26253;-48
2022/08/10 00:16:03;;;;;;;0.75;0.70;;;;;;;;;;1853850;76;26287;-50
2022/08/10 00:18:30;;;;;;;0.60;0.60;;;;;;;;;;1849055;76;26318;-45
2022/08/10 00:20:57;;;;;;;0.70;0.70;;;;;;;;;;1853753;76;26342;-43
2022/08/10 00:23:25;;;;;;;0.72;0.72;;;;;;;;;;1853311;76;26372;-44
2022/08/10 00:25:52;;;;;;;1.25;1.00;;;;;;;;;;1856366;76;26728;-46
2022/08/10 00:28:19;;;;;;;0.82;0.82;;;;;;;;;;1857646;76;26331;-42
2022/08/10 00:30:47;;;;;;;1.80;0.80;;;;;;;;;;1858658;76;26255;-46
2022/08/10 00:33:14;;;;;;;1.80;0.98;;;;;;;;;;1850459;76;26263;-42
2022/08/10 00:35:41;;;;;;;0.90;0.90;;;;;;;;;;1855484;77;26766;-43
2022/08/10 00:38:09;;;;;;;1.37;0.90;;;;;;;;;;1854578;76;26898;-46
2022/08/10 00:40:37;;;;;;;0.80;0.80;;;;;;;;;;1856440;76;26253;-43
2022/08/10 00:43:05;;;;;;;0.80;0.80;;;;;;;;;;1861354;76;26399;-46
2022/08/10 00:45:33;;;;;;;1.87;0.90;;;;;;;;;;1855977;76;26763;-45
2022/08/10 00:48:00;;;;;;;3.15;0.90;;;;;;;;;;1849091;76;26248;-46
2022/08/10 00:50:27;;;;;;;3.12;0.98;;;;;;;;;;1852066;76;26787;-47
2022/08/10 00:52:55;;;;;;;1.10;0.90;;;;;;;;;;1861977;75;26268;-50
2022/08/10 00:55:22;;;;;;;1.00;1.00;;;;;;;;;;1879857;76;26327;-42
2022/08/10 00:57:50;;;;;;;1.75;0.90;;;;;;;;;;1876810;75;26246;-48
2022/08/10 01:00:17;;;;;;;0.95;0.90;;;;;;;;;;1875934;75;26573;-47
2022/08/10 01:02:45;;;;;;;1.00;1.00;;;;;;;;;;1878028;76;26690;-48
2022/08/10 01:05:13;;;;;;;1.17;1.00;;;;;;;;;;1879216;76;26241;-53
2022/08/10 01:07:42;;;;;;;1.00;0.90;;;;;;;;;;1876990;76;26544;-48
2022/08/10 01:10:13;;;;;;;1.02;0.90;;;;;;;;;;1866912;72;52124;-88
2022/08/10 01:12:42;;;;;;;0.90;0.90;;;;;;;;;;1861400;75;26247;-90
2022/08/10 01:15:23;;;;;;;0.90;0.90;;;;;;;;;;1864689;75;26302;-88
2022/08/10 01:17:55;;;;;;;1.67;0.90;;;;;;;;;;1859377;75;26754;-88
2022/08/10 01:20:39;;;;;;;0.88;0.88;;;;;;;;;;1863720;74;26580;-88
2022/08/10 01:23:24;;;;;;;0.80;0.80;;;;;;;;;;1868259;75;26262;-86
2022/08/10 01:26:05;;;;;;;0.90;0.90;;;;;;;;;;1872912;74;26257;-87
2022/08/10 01:28:43;;;;;;;0.90;0.90;;;;;;;;;;1862566;75;26303;-87
2022/08/10 01:31:12;;;;;;;1.00;1.00;;;;;;;;;;1818447;77;26244;-87
2022/08/10 01:33:47;;;;;;;1.00;1.00;;;;;;;;;;1864710;74;26382;-88
2022/08/10 01:36:15;;;;;;;0.90;0.90;;;;;;;;;;1865291;75;26216;-89
2022/08/10 01:38:47;;;;;;;1.02;0.93;;;;;;;;;;1865187;74;26240;-88
2022/08/10 01:41:25;;;;;;;0.80;0.80;;;;;;;;;;1861227;75;26709;-88
2022/08/10 01:43:59;;;;;;;0.80;0.80;;;;;;;;;;1865072;75;26616;-87
2022/08/10 01:46:28;;;;;;;1.62;0.80;;;;;;;;;;1867710;75;26342;-86
2022/08/10 01:48:56;;;;;;;0.75;0.75;;;;;;;;;;1868477;74;26824;-86
2022/08/10 01:51:31;;;;;;;1.27;0.90;;;;;;;;;;1863044;74;26234;-88
2022/08/10 01:54:00;;;;;;;0.90;0.90;;;;;;;;;;1864673;74;26299;-88
2022/08/10 01:56:29;;;;;;;0.93;0.93;;;;;;;;;;1863067;74;26193;-88
2022/08/10 01:58:58;;;;;;;0.95;0.95;;;;;;;;;;1857448;75;26293;-88
2022/08/10 02:01:28;;;;;;;0.80;0.80;;;;;;;;;;1856293;75;26260;-87
2022/08/10 02:03:57;;;;;;;0.98;0.93;;;;;;;;;;1872529;75;26296;-87
2022/08/10 02:06:25;;;;;;;0.90;0.90;;;;;;;;;;1854668;75;26247;-87
2022/08/10 02:08:53;;;;;;;1.00;1.00;;;;;;;;;;1872299;75;26218;-87
2022/08/10 02:11:22;;;;;;;1.17;0.93;;;;;;;;;;1844329;76;26196;-87
2022/08/10 02:13:50;;;;;;;0.80;0.80;;;;;;;;;;1888748;74;26411;-87
2022/08/10 02:16:18;;;;;;;0.90;0.90;;;;;;;;;;1895001;75;26348;-89
2022/08/10 02:18:46;;;;;;;0.80;0.80;;;;;;;;;;1898318;73;26268;-90
2022/08/10 02:21:14;;;;;;;0.80;0.80;;;;;;;;;;1895761;72;25268;-89
2022/08/10 02:23:42;;;;;;;1.07;1.07;;;;;;;;;;1889256;73;26230;-89
2022/08/10 02:26:11;;;;;;;0.90;0.90;;;;;;;;;;1895369;73;26251;-88
2022/08/10 02:28:38;;;;;;;0.90;0.90;;;;;;;;;;1879976;73;26262;-87
2022/08/10 02:31:10;;;;;;;0.80;0.80;;;;;;;;;;1894623;74;26316;-86
2022/08/10 02:33:40;;;;;;;0.88;0.88;;;;;;;;;;1895606;73;26258;-89
2022/08/10 02:36:09;;;;;;;0.95;0.95;;;;;;;;;;1891365;73;26232;-87
2022/08/10 02:38:38;;;;;;;0.88;0.88;;;;;;;;;;1868694;75;26228;-87
2022/08/10 02:41:10;;;;;;;1.10;1.10;;;;;;;;;;1885113;75;26328;-87
2022/08/10 02:43:38;;;;;;;0.80;0.80;;;;;;;;;;1892262;75;26277;-87
2022/08/10 02:46:10;;;;;;;1.47;1.00;;;;;;;;;;1890755;74;26308;-88
2022/08/10 02:48:39;;;;;;;0.90;0.90;;;;;;;;;;1874250;74;26237;-88
2022/08/10 02:51:07;;;;;;;0.93;0.93;;;;;;;;;;1890223;75;26290;-88
2022/08/10 02:53:36;;;;;;;1.07;1.00;;;;;;;;;;1893114;74;26314;-88
2022/08/10 02:56:08;;;;;;;0.80;0.80;;;;;;;;;;1892119;74;26328;-87
2022/08/10 02:58:37;;;;;;;0.93;0.93;;;;;;;;;;1875638;74;26316;-87
2022/08/10 03:01:05;;;;;;;1.00;1.00;;;;;;;;;;1885863;74;26710;-87
2022/08/10 03:03:34;;;;;;;0.90;0.90;;;;;;;;;;1879537;74;26227;-88
2022/08/10 03:06:03;;;;;;;0.93;0.93;;;;;;;;;;1890214;74;26295;-88
2022/08/10 03:08:32;;;;;;;1.10;1.10;;;;;;;;;;1890598;74;26242;-87
2022/08/10 03:11:01;;;;;;;0.88;0.88;;;;;;;;;;1864150;74;26280;-87
2022/08/10 03:13:28;;;;;;;0.93;0.93;;;;;;;;;;1862843;75;26236;-88
2022/08/10 03:15:56;;;;;;;0.90;0.90;;;;;;;;;;1869727;74;26206;-87
2022/08/10 03:18:24;;;;;;;0.80;0.80;;;;;;;;;;1869273;75;26210;-88
2022/08/10 03:20:52;;;;;;;0.90;0.90;;;;;;;;;;1860618;74;26327;-88
2022/08/10 03:23:21;;;;;;;0.80;0.80;;;;;;;;;;1853592;75;26304;-88
2022/08/10 03:25:50;;;;;;;0.93;0.93;;;;;;;;;;1850153;75;26322;-87
2022/08/10 03:28:18;;;;;;;0.85;0.85;;;;;;;;;;1862221;74;26201;-87
2022/08/10 03:30:46;;;;;;;1.00;1.00;;;;;;;;;;1860987;74;26237;-88
2022/08/10 03:33:13;;;;;;;0.80;0.80;;;;;;;;;;1870511;75;26248;-88
2022/08/10 03:35:41;;;;;;;1.00;1.00;;;;;;;;;;1875780;74;26240;-88
2022/08/10 03:38:08;;;;;;;0.95;0.95;;;;;;;;;;1852482;74;26249;-86
2022/08/10 03:40:35;;;;;;;1.02;1.02;;;;;;;;;;1858280;75;26244;-88
2022/08/10 03:43:03;;;;;;;1.10;1.10;;;;;;;;;;1865579;75;26181;-87
2022/08/10 03:45:32;;;;;;;0.80;0.80;;;;;;;;;;1871645;74;26763;-88
2022/08/10 03:48:00;;;;;;;1.02;1.02;;;;;;;;;;1871608;74;26343;-87
2022/08/10 03:50:28;;;;;;;1.10;1.10;;;;;;;;;;1886716;75;26303;-88
2022/08/10 03:52:56;;;;;;;0.95;0.95;;;;;;;;;;1864697;74;26329;-88
2022/08/10 03:55:24;;;;;;;1.00;1.00;;;;;;;;;;1865076;75;26321;-87
2022/08/10 03:57:51;;;;;;;1.00;1.00;;;;;;;;;;1870217;74;26265;-88
2022/08/10 04:00:18;;;;;;;1.10;0.90;;;;;;;;;;1856231;75;26283;-87
2022/08/10 04:02:46;;;;;;;1.00;1.00;;;;;;;;;;1862694;75;27395;-88
2022/08/10 04:05:14;;;;;;;0.90;0.90;;;;;;;;;;1867237;74;26347;-88
2022/08/10 04:07:44;;;;;;;0.95;0.95;;;;;;;;;;1867167;74;26212;-87
2022/08/10 04:10:13;;;;;;;0.80;0.80;;;;;;;;;;1878370;74;26488;-87
2022/08/10 04:12:40;;;;;;;0.98;0.98;;;;;;;;;;1903777;74;26379;-87
2022/08/10 04:15:08;;;;;;;1.70;1.00;;;;;;;;;;1898318;74;26275;-88
2022/08/10 04:17:35;;;;;;;0.90;0.90;;;;;;;;;;1894634;74;26279;-87
2022/08/10 04:20:03;;;;;;;1.10;1.10;;;;;;;;;;1887478;74;26783;-88
2022/08/10 04:22:32;;;;;;;1.22;1.00;;;;;;;;;;1895279;74;26398;-87
2022/08/10 04:25:01;;;;;;;0.90;0.90;;;;;;;;;;1908784;74;26304;-88
2022/08/10 04:27:29;;;;;;;1.07;1.07;;;;;;;;;;1902245;74;26209;-87
2022/08/10 04:29:57;;;;;;;1.00;1.00;;;;;;;;;;1885452;74;26243;-88
2022/08/10 04:32:26;;;;;;;1.10;1.10;;;;;;;;;;1897753;74;26351;-87
2022/08/10 04:34:54;;;;;;;0.90;0.90;;;;;;;;;;1898643;74;26410;-87
2022/08/10 04:37:23;;;;;;;1.10;1.10;;;;;;;;;;1900420;74;26343;-87
2022/08/10 04:39:50;;;;;;;0.90;0.90;;;;;;;;;;1886030;74;26410;-88
2022/08/10 04:42:18;;;;;;;1.00;1.00;;;;;;;;;;1907354;74;26254;-87
2022/08/10 04:44:45;;;;;;;1.05;1.05;;;;;;;;;;1899926;74;26242;-88
2022/08/10 04:47:12;;;;;;;1.02;1.02;;;;;;;;;;1914812;74;26294;-88
2022/08/10 04:49:39;;;;;;;1.00;1.00;;;;;;;;;;1904272;74;26277;-87
2022/08/10 04:52:07;;;;;;;1.00;1.00;;;;;;;;;;1911397;74;26264;-87
2022/08/10 04:54:34;;;;;;;1.10;1.10;;;;;;;;;;1899702;74;26302;-87
2022/08/10 04:57:01;;;;;;;1.10;1.10;;;;;;;;;;1900296;74;26293;-88
2022/08/10 04:59:28;;;;;;;1.20;1.20;;;;;;;;;;1918331;74;26222;-88
2022/08/10 05:01:56;;;;;;;1.00;1.00;;;;;;;;;;1891416;74;26772;-88
2022/08/10 05:04:23;;;;;;;1.10;1.10;;;;;;;;;;1893336;74;26716;-87
2022/08/10 05:06:50;;;;;;;1.00;1.00;;;;;;;;;;1909735;74;26208;-86
2022/08/10 05:09:18;;;;;;;1.00;1.00;;;;;;;;;;1877874;74;26310;-87
2022/08/10 05:11:45;;;;;;;1.10;1.10;;;;;;;;;;1886092;74;26400;-87
2022/08/10 05:14:12;;;;;;;1.10;1.10;;;;;;;;;;1881102;75;26284;-87
2022/08/10 05:16:39;;;;;;;1.00;1.00;;;;;;;;;;1885063;75;26292;-87
2022/08/10 05:19:07;;;;;;;2.02;1.10;;;;;;;;;;1862274;75;26303;-88
2022/08/10 05:21:34;;;;;;;0.90;0.90;;;;;;;;;;1881424;75;26220;-86
2022/08/10 05:24:03;;;;;;;1.67;1.10;;;;;;;;;;1884153;75;26249;-87
2022/08/10 05:26:30;;;;;;;1.12;1.10;;;;;;;;;;1876885;75;26997;-87
2022/08/10 05:28:58;;;;;;;0.90;0.90;;;;;;;;;;1895813;75;26236;-88
2022/08/10 05:31:26;;;;;;;1.02;1.02;;;;;;;;;;1879658;75;26641;-87
2022/08/10 05:33:53;;;;;;;1.27;1.17;;;;;;;;;;1884764;75;26798;-87
2022/08/10 05:36:20;;;;;;;1.02;1.02;;;;;;;;;;1884469;75;26241;-88
2022/08/10 05:38:49;;;;;;;1.20;1.20;;;;;;;;;;1882069;75;26311;-88
2022/08/10 05:41:16;;;;;;;1.20;1.10;;;;;;;;;;1876433;75;26339;-88
2022/08/10 05:43:44;;;;;;;1.20;1.20;;;;;;;;;;1885159;75;26936;-90
2022/08/10 05:46:11;;;;;;;1.37;1.27;;;;;;;;;;1881623;75;26314;-88
2022/08/10 05:48:39;;;;;;;1.50;1.20;;;;;;;;;;1881186;75;26337;-88
2022/08/10 05:51:06;;;;;;;1.27;1.05;;;;;;;;;;1870998;75;26268;-88
2022/08/10 05:53:35;;;;;;;2.15;1.30;;;;;;;;;;1867539;75;26295;-87
2022/08/10 05:56:03;;;;;;;1.20;1.10;;;;;;;;;;1880048;75;26271;-88
2022/08/10 05:58:30;;;;;;;1.85;1.15;;;;;;;;;;1880641;75;26654;-88
2022/08/10 06:00:59;;;;;;;1.20;1.20;;;;;;;;;;1873829;75;26312;-88
2022/08/10 06:03:28;;;;;;;1.85;1.22;;;;;;;;;;1875442;75;27457;-87
2022/08/10 06:05:56;;;;;;;3.37;1.22;;;;;;;;;;1871849;75;26248;-87
2022/08/10 06:08:25;;;;;;;1.30;1.20;;;;;;;;;;1877891;75;26198;-87
2022/08/10 06:10:54;;;;;;;2.45;1.30;;;;;;;;;;1881247;75;26263;-88
2022/08/10 06:16:09;;;;;;;1.75;1.22;;;;;;;;;;1867099;75;26349;-88
2022/08/10 06:18:36;;;;;;;1.20;1.20;;;;;;;;;;1871482;76;26351;-88
2022/08/10 06:21:04;;;;;;;2.22;1.30;;;;;;;;;;1875023;75;26252;-88
2022/08/10 06:23:32;;;;;;;3.83;1.55;;;;;;;;;;1864979;75;26282;-86
2022/08/10 06:26:00;;;;;;;2.77;1.10;;;;;;;;;;1868620;75;26335;-88
2022/08/10 06:28:28;;;;;;;1.50;1.40;;;;;;;;;;1867867;75;26255;-87
2022/08/10 06:30:56;;;;;;;1.30;1.20;;;;;;;;;;1872119;75;26319;-91
2022/08/10 06:33:25;;;;;;;2.40;1.40;;;;;;;;;;1863126;76;26255;-89
2022/08/10 06:35:54;;;;;;;1.42;1.20;;;;;;;;;;1867434;75;26334;-87
2022/08/10 06:38:23;;;;;;;1.32;1.15;;;;;;;;;;1863885;75;26731;-87
2022/08/10 06:40:52;;;;;;;1.50;1.22;;;;;;;;;;1866824;75;26701;-86
2022/08/10 06:43:20;;;;;;;5.03;1.40;;;;;;;;;;1872134;75;27225;-86
2022/08/10 06:45:49;;;;;;;2.08;1.22;;;;;;;;;;1869825;75;26587;-87
2022/08/10 06:48:18;;;;;;;3.67;1.27;;;;;;;;;;1865812;75;26775;-86
2022/08/10 06:50:50;;;;;;;1.75;1.20;;;;;;;;;;1878960;75;26276;-87
2022/08/10 06:53:18;;;;;;;1.35;1.20;;;;;;;;;;1867620;76;26220;-88
2022/08/10 06:55:47;;;;;;;1.85;1.62;;;;;;;;;;1866244;75;26765;-87
2022/08/10 06:58:15;;;;;;;1.98;1.57;;;;;;;;;;1870926;75;26259;-88
2022/08/10 07:00:42;;;;;;;2.25;1.47;;;;;;;;;;1861617;75;26270;-89
2022/08/10 07:03:11;;;;;;;1.92;1.40;;;;;;;;;;1863604;76;26751;-89
2022/08/10 07:05:40;;;;;;;3.42;1.60;;;;;;;;;;1866515;75;26261;-88
2022/08/10 07:08:08;;;;;;;2.10;1.40;;;;;;;;;;1865587;75;26317;-89
2022/08/10 07:10:36;;;;;;;3.05;1.50;;;;;;;;;;1865646;75;26196;-92
2022/08/10 07:13:03;;;;;;;16.77;1.90;;;;;;;;;;1883384;74;26413;-89
2022/08/10 07:15:31;;;;;;;2.87;1.55;;;;;;;;;;1882903;75;26286;-90
2022/08/10 07:17:59;;;;;;;3.17;1.45;;;;;;;;;;1893485;74;26282;-89
2022/08/10 07:20:27;;;;;;;7.90;1.77;;;;;;;;;;1894537;74;26340;-89
2022/08/10 07:22:54;;;;;;;4.42;1.42;;;;;;;;;;1891767;74;26258;-90
2022/08/10 07:25:24;;;;;;;3.75;1.42;;;;;;;;;;1891154;74;26242;-89
2022/08/10 07:27:52;;;;;;;9.00;1.42;;;;;;;;;;1887678;74;26243;-89
2022/08/10 07:30:20;;;;;;;1.67;1.35;;;;;;;;;;1875937;75;26674;-90
2022/08/10 07:32:51;;;;;;;1.90;1.37;;;;;;;;;;1889878;74;26231;-89
2022/08/10 07:35:20;;;;;;;3.80;1.52;;;;;;;;;;1876506;74;27567;-89
2022/08/10 07:37:49;;;;;;;1.47;1.37;;;;;;;;;;1880961;74;26740;-88
2022/08/10 07:40:18;;;;;;;3.80;1.45;;;;;;;;;;1890062;74;26226;-88
2022/08/10 07:42:47;;;;;;;2.20;1.30;;;;;;;;;;1891240;75;26830;-89
2022/08/10 07:45:14;;;;;;;1.40;1.30;;;;;;;;;;1875173;75;26273;-89
2022/08/10 07:47:43;;;;;;;4.47;1.62;;;;;;;;;;1870176;75;26264;-89
2022/08/10 07:50:11;;;;;;;1.50;1.40;;;;;;;;;;1875213;76;26657;-90
2022/08/10 07:52:39;;;;;;;3.25;1.20;;;;;;;;;;1874508;76;26252;-89
2022/08/10 07:55:07;;;;;;;1.45;1.30;;;;;;;;;;1872189;75;26313;-87
2022/08/10 07:57:36;;;;;;;2.83;1.20;;;;;;;;;;1882629;76;26332;-88
2022/08/10 08:00:05;;;;;;;2.45;1.40;;;;;;;;;;1877357;75;26243;-88
2022/08/10 08:02:34;;;;;;;1.32;1.17;;;;;;;;;;1868998;75;26364;-88
2022/08/10 08:05:02;;;;;;;3.33;1.20;;;;;;;;;;1871801;75;26342;-89
2022/08/10 08:07:30;;;;;;;1.25;1.15;;;;;;;;;;1870141;75;26258;-88
2022/08/10 08:09:58;;;;;;;1.27;1.20;;;;;;;;;;1816510;77;26290;-87
2022/08/10 08:12:26;;;;;;;2.15;1.25;;;;;;;;;;1876706;75;26785;-86
2022/08/10 08:14:55;;;;;;;2.40;1.30;;;;;;;;;;1871230;74;26198;-87
2022/08/10 08:17:25;;;;;;;2.02;1.40;;;;;;;;;;1884920;74;26232;-87
2022/08/10 08:19:53;;;;;;;1.65;1.20;;;;;;;;;;1842512;75;26362;-86
2022/08/10 08:22:22;;;;;;;3.25;1.57;;;;;;;;;;1856768;76;26280;-86
2022/08/10 08:24:50;;;;;;;1.20;1.10;;;;;;;;;;1880908;75;26247;-88
2022/08/10 08:27:18;;;;;;;2.67;1.12;;;;;;;;;;1858957;75;26276;-86
2022/08/10 08:29:47;;;;;;;1.00;1.00;;;;;;;;;;1863183;75;26279;-86
2022/08/10 08:32:21;;;;;;;2.22;1.20;;;;;;;;;;1838824;77;26254;-87
2022/08/10 08:34:50;;;;;;;1.10;1.10;;;;;;;;;;1823942;78;26223;-86
2022/08/10 08:37:19;;;;;;;2.37;1.32;;;;;;;;;;1847984;75;26796;-87
2022/08/10 08:39:47;;;;;;;1.77;1.20;;;;;;;;;;1838468;77;26273;-85
2022/08/10 08:42:32;;;;;;;1.30;1.30;;;;;;;;;;1846880;76;26349;-88
2022/08/10 08:45:17;;;;;;;3.52;1.27;;;;;;;;;;1844348;76;26249;-87
2022/08/10 08:47:55;;;;;;;1.25;1.25;;;;;;;;;;1824765;77;26721;-87
2022/08/10 08:50:40;;;;;;;1.20;1.20;;;;;;;;;;1834775;77;26775;-86
2022/08/10 08:53:15;;;;;;;4.03;1.30;;;;;;;;;;1826363;77;26283;-86
2022/08/10 08:55:56;;;;;;;2.80;1.20;;;;;;;;;;1832910;77;26275;-86
2022/08/10 08:58:27;;;;;;;1.25;1.25;;;;;;;;;;1843929;76;26847;-90
2022/08/10 09:00:56;;;;;;;4.03;1.20;;;;;;;;;;1841827;76;26221;-89
2022/08/10 09:03:28;;;;;;;1.07;1.07;;;;;;;;;;1861530;76;26406;-91
2022/08/10 09:06:16;;;;;;;1.22;1.20;;;;;;;;;;1839479;76;26219;-89
2022/08/10 09:08:44;;;;;;;1.40;1.30;;;;;;;;;;1850569;76;26321;-88
2022/08/10 09:11:28;;;;;;;1.35;1.07;;;;;;;;;;1848960;76;26296;-87
2022/08/10 09:14:00;;;;;;;1.40;1.20;;;;;;;;;;1834484;76;26643;-89
2022/08/10 09:16:44;;;;;;;1.62;1.22;;;;;;;;;;1830050;78;26289;-88
2022/08/10 09:19:16;;;;;;;1.02;1.02;;;;;;;;;;1813393;79;26957;-88
2022/08/10 09:21:48;;;;;;;1.20;1.10;;;;;;;;;;1837027;76;26248;-88
2022/08/10 09:24:17;;;;;;;1.20;1.20;;;;;;;;;;1812818;77;26723;-89
2022/08/10 09:26:45;;;;;;;1.20;1.20;;;;;;;;;;1805315;78;26907;-87
2022/08/10 09:29:14;;;;;;;1.35;1.30;;;;;;;;;;1838457;78;26387;-88
2022/08/10 09:31:44;;;;;;;4.10;1.50;;;;;;;;;;1842984;78;26301;-86
2022/08/10 09:34:21;;;;;;;4.03;1.10;;;;;;;;;;1832528;78;26292;-88
2022/08/10 09:37:07;;;;;;;1.95;1.17;;;;;;;;;;1841495;77;26292;-87
2022/08/10 09:39:38;;;;;;;1.98;1.15;;;;;;;;;;1855878;76;26633;-87
2022/08/10 09:42:10;;;;;;;3.05;1.40;;;;;;;;;;1820125;78;26253;-87
2022/08/10 09:44:54;;;;;;;1.40;1.25;;;;;;;;;;1839036;77;26772;-87
2022/08/10 09:47:22;;;;;;;2.92;1.22;;;;;;;;;;1829815;76;26293;-87
2022/08/10 09:49:58;;;;;;;1.30;1.20;;;;;;;;;;1842643;78;26317;-87
2022/08/10 09:52:35;;;;;;;1.60;1.50;;;;;;;;;;1837897;78;26321;-87
2022/08/10 09:55:07;;;;;;;1.55;1.20;;;;;;;;;;1842006;77;26238;-87
2022/08/10 09:57:36;;;;;;;1.40;1.20;;;;;;;;;;1823888;78;26222;-88
2022/08/10 10:00:08;;;;;;;1.35;1.30;;;;;;;;;;1830431;78;26263;-87
2022/08/10 10:02:53;;;;;;;2.17;1.20;;;;;;;;;;1820258;78;26312;-88
2022/08/10 10:05:25;;;;;;;1.00;1.00;;;;;;;;;;1823750;78;26815;-87
2022/08/10 10:08:00;;;;;;;1.20;1.20;;;;;;;;;;1829402;78;26288;-87
2022/08/10 10:10:32;;;;;;;1.17;1.07;;;;;;;;;;1821215;78;26261;-87
2022/08/10 10:13:16;;;;;;;1.00;1.00;;;;;;;;;;1844557;75;26847;-87
2022/08/10 10:16:01;;;;;;;1.12;1.10;;;;;;;;;;1856119;76;26485;-86
2022/08/10 10:18:30;;;;;;;0.95;0.95;;;;;;;;;;1860744;74;26201;-87
2022/08/10 10:21:15;;;;;;;1.22;1.15;;;;;;;;;;1876805;74;26284;-88
2022/08/10 10:24:02;;;;;;;1.00;1.00;;;;;;;;;;1868299;73;26611;-88
2022/08/10 10:26:33;;;;;;;1.47;1.00;;;;;;;;;;1878079;74;26241;-88
2022/08/10 10:29:19;;;;;;;1.12;1.12;;;;;;;;;;1874524;74;26314;-88
2022/08/10 10:32:06;;;;;;;0.95;0.95;;;;;;;;;;1877842;73;26319;-88
2022/08/10 10:34:47;;;;;;;0.90;0.90;;;;;;;;;;1885306;73;26367;-89
2022/08/10 10:37:15;;;;;;;1.00;1.00;;;;;;;;;;1870309;74;26222;-88
2022/08/10 10:39:44;;;;;;;1.00;1.00;;;;;;;;;;1878089;74;26346;-87
2022/08/10 10:42:12;;;;;;;1.10;1.10;;;;;;;;;;1858034;75;26334;-88
2022/08/10 10:45:00;;;;;;;1.00;1.00;;;;;;;;;;1869973;76;26280;-88
2022/08/10 10:47:45;;;;;;;1.00;1.00;;;;;;;;;;1878511;75;26719;-88
2022/08/10 10:50:14;;;;;;;1.00;1.00;;;;;;;;;;1876635;75;26278;-87
2022/08/10 10:52:59;;;;;;;1.98;1.00;;;;;;;;;;1870328;75;26764;-87
2022/08/10 10:55:37;;;;;;;0.90;0.90;;;;;;;;;;1854812;76;26303;-87
2022/08/10 10:58:08;;;;;;;0.80;0.80;;;;;;;;;;1866758;76;26761;-87
2022/08/10 11:00:40;;;;;;;0.90;0.90;;;;;;;;;;1868775;76;26257;-88
2022/08/10 11:03:26;;;;;;;0.90;0.90;;;;;;;;;;1872570;75;26886;-87
2022/08/10 11:05:54;;;;;;;1.02;1.02;;;;;;;;;;1874956;76;26311;-87
2022/08/10 11:08:26;;;;;;;0.90;0.90;;;;;;;;;;1872251;76;26334;-87
2022/08/10 11:11:01;;;;;;;0.90;0.90;;;;;;;;;;1871466;75;26808;-88
2022/08/10 11:13:48;;;;;;;0.82;0.82;;;;;;;;;;1876686;75;26342;-87
2022/08/10 11:16:18;;;;;;;0.70;0.70;;;;;;;;;;1868544;77;26388;-87
2022/08/10 11:18:47;;;;;;;0.90;0.90;;;;;;;;;;1867826;75;26279;-88
2022/08/10 11:21:33;;;;;;;0.80;0.80;;;;;;;;;;1865133;75;26334;-87
2022/08/10 11:24:14;;;;;;;0.90;0.90;;;;;;;;;;1852752;77;26308;-90
2022/08/10 11:26:43;;;;;;;0.90;0.90;;;;;;;;;;1799719;77;26332;-87
2022/08/10 11:29:15;;;;;;;0.80;0.80;;;;;;;;;;1866633;77;26278;-86
2022/08/10 11:31:44;;;;;;;0.90;0.90;;;;;;;;;;1860280;76;26316;-87
2022/08/10 11:34:12;;;;;;;0.90;0.90;;;;;;;;;;1858752;77;26311;-87
2022/08/10 11:36:58;;;;;;;0.90;0.90;;;;;;;;;;1864673;76;26228;-86
2022/08/10 11:39:32;;;;;;;0.90;0.90;;;;;;;;;;1852047;77;26329;-87
2022/08/10 11:42:01;;;;;;;1.62;1.00;;;;;;;;;;1867859;76;26777;-87
2022/08/10 11:44:42;;;;;;;8.38;1.00;;;;;;;;;;1865925;76;26251;-86
2022/08/10 11:47:11;;;;;;;0.88;0.88;;;;;;;;;;1802477;75;26260;-87
2022/08/10 11:49:49;;;;;;;0.80;0.80;;;;;;;;;;1862705;76;26630;-86
2022/08/10 11:52:18;;;;;;;0.93;0.90;;;;;;;;;;1863742;77;26293;-86
2022/08/10 11:54:55;;;;;;;1.15;1.10;;;;;;;;;;1857717;76;26325;-87
2022/08/10 11:57:24;;;;;;;0.80;0.80;;;;;;;;;;1863605;77;26266;-86
2022/08/10 11:59:55;;;;;;;1.00;0.85;;;;;;;;;;1867009;76;26804;-87
2022/08/10 12:02:24;;;;;;;0.80;0.80;;;;;;;;;;1865546;77;26330;-86
2022/08/10 12:04:53;;;;;;;1.02;0.80;;;;;;;;;;1867614;77;26269;-87
2022/08/10 12:07:21;;;;;;;0.82;0.80;;;;;;;;;;1863187;76;26255;-87
2022/08/10 12:09:49;;;;;;;0.88;0.88;;;;;;;;;;1860979;77;26299;-87
2022/08/10 12:12:16;;;;;;;0.70;0.70;;;;;;;;;;1865032;76;26377;-87
2022/08/10 12:14:48;;;;;;;0.85;0.85;;;;;;;;;;1871216;75;26238;-87
2022/08/10 12:17:16;;;;;;;0.80;0.80;;;;;;;;;;1870406;74;26331;-86
2022/08/10 12:19:45;;;;;;;0.78;0.78;;;;;;;;;;1852113;76;26721;-85
2022/08/10 12:22:14;;;;;;;1.47;0.90;;;;;;;;;;1867104;75;26246;-86
2022/08/10 12:24:58;;;;;;;0.90;0.90;;;;;;;;;;1866781;76;26528;-86
2022/08/10 12:27:36;;;;;;;0.70;0.70;;;;;;;;;;1853609;76;26836;-86
2022/08/10 12:30:11;;;;;;;0.90;0.90;;;;;;;;;;1852215;76;26244;-87
2022/08/10 12:32:43;;;;;;;0.98;0.90;;;;;;;;;;1860797;75;26250;-86
2022/08/10 12:35:14;;;;;;;2.15;0.88;;;;;;;;;;1865186;77;26877;-87
2022/08/10 12:37:43;;;;;;;0.88;0.80;;;;;;;;;;1837693;77;26317;-87
2022/08/10 12:40:15;;;;;;;6.60;1.05;;;;;;;;;;1869335;75;26333;-86
2022/08/10 12:42:44;;;;;;;1.77;1.07;;;;;;;;;;1858447;77;26290;-87
2022/08/10 12:45:18;;;;;;;3.15;1.00;;;;;;;;;;1858484;76;26330;-87
2022/08/10 12:48:02;;;;;;;3.08;0.90;;;;;;;;;;1861870;76;26745;-87
2022/08/10 12:50:31;;;;;;;6.50;1.00;;;;;;;;;;1856038;76;26303;-84
2022/08/10 12:53:00;;;;;;;5.15;1.37;;;;;;;;;;1865786;76;26761;-88
2022/08/10 12:55:28;;;;;;;4.22;1.02;;;;;;;;;;1855643;77;26254;-87
2022/08/10 12:57:57;;;;;;;1.50;1.00;;;;;;;;;;1860760;77;26710;-87
2022/08/10 13:00:32;;;;;;;6.17;1.00;;;;;;;;;;1862928;77;26295;-87
2022/08/10 13:03:00;;;;;;;5.03;1.40;;;;;;;;;;1862116;77;26275;-86
2022/08/10 13:05:28;;;;;;;1.87;0.90;;;;;;;;;;1881261;75;26337;-88
2022/08/10 13:10:46;;;;;;;1.37;0.88;;;;;;;;;;1867456;77;26328;-87
2022/08/10 13:13:14;;;;;;;7.20;1.20;;;;;;;;;;1868196;76;26195;-88
2022/08/10 13:15:43;;;;;;;4.67;1.10;;;;;;;;;;1872677;76;26328;-90
2022/08/10 13:18:11;;;;;;;5.37;1.10;;;;;;;;;;1875601;75;26266;-87
2022/08/10 13:20:39;;;;;;;3.33;1.17;;;;;;;;;;1865947;76;26269;-86
2022/08/10 13:23:11;;;;;;;4.25;1.20;;;;;;;;;;1878289;76;26314;-87
2022/08/10 13:25:40;;;;;;;5.78;1.10;;;;;;;;;;1871452;76;26371;-86
2022/08/10 13:28:08;;;;;;;4.95;1.22;;;;;;;;;;1871252;76;26680;-86
2022/08/10 13:30:36;;;;;;;5.42;1.07;;;;;;;;;;1867962;75;26718;-87
2022/08/10 13:33:04;;;;;;;3.40;1.10;;;;;;;;;;1868719;76;27551;-87
2022/08/10 13:35:32;;;;;;;6.15;1.25;;;;;;;;;;1875785;76;26258;-87
2022/08/10 13:38:01;;;;;;;4.22;1.00;;;;;;;;;;1873876;76;26238;-87
2022/08/10 13:40:30;;;;;;;2.33;1.10;;;;;;;;;;1877055;76;26703;-87
2022/08/10 13:42:59;;;;;;;2.52;1.10;;;;;;;;;;1873869;76;26235;-87
2022/08/10 13:45:27;;;;;;;2.67;1.27;;;;;;;;;;1870323;76;26302;-87
2022/08/10 13:47:55;;;;;;;5.97;1.20;;;;;;;;;;1877829;76;26814;-87
2022/08/10 13:50:24;;;;;;;4.28;1.15;;;;;;;;;;1868259;75;26918;-87
2022/08/10 13:52:53;;;;;;;3.40;1.10;;;;;;;;;;1876579;76;26272;-89
2022/08/10 13:55:21;;;;;;;1.60;1.10;;;;;;;;;;1876620;75;26289;-90
2022/08/10 13:57:50;;;;;;;4.47;1.00;;;;;;;;;;1889709;75;26651;-86
2022/08/10 14:00:18;;;;;;;2.90;1.00;;;;;;;;;;1895619;74;26332;-86
2022/08/10 14:02:50;;;;;;;5.03;1.10;;;;;;;;;;1894308;74;26238;-85
2022/08/10 14:05:24;;;;;;;5.00;1.15;;;;;;;;;;1885931;74;26663;-90
2022/08/10 14:07:52;;;;;;;1.50;1.00;;;;;;;;;;1900704;74;26305;-87
2022/08/10 14:10:20;;;;;;;2.70;1.47;;;;;;;;;;1883653;74;26274;-89
2022/08/10 14:12:48;;;;;;;4.42;1.10;;;;;;;;;;1901816;74;26226;-88
2022/08/10 14:15:19;;;;;;;2.22;0.95;;;;;;;;;;1890814;74;26348;-87
2022/08/10 14:17:48;;;;;;;2.17;1.00;;;;;;;;;;1892422;74;26309;-87
2022/08/10 14:20:17;;;;;;;2.12;0.90;;;;;;;;;;1891989;74;26353;-88
2022/08/10 14:22:44;;;;;;;2.75;1.12;;;;;;;;;;1882181;74;26873;-86
2022/08/10 14:25:12;;;;;;;4.10;1.00;;;;;;;;;;1892979;76;26249;-88
2022/08/10 14:27:41;;;;;;;2.12;1.00;;;;;;;;;;1897769;74;26227;-89
2022/08/10 14:30:09;;;;;;;2.60;1.50;;;;;;;;;;1894897;74;26317;-86
2022/08/10 14:32:51;;;;;;;4.20;1.02;;;;;;;;;;1895141;76;26739;-88
2022/08/10 14:35:20;;;;;;;3.27;1.15;;;;;;;;;;1894384;76;26325;-88
2022/08/10 14:37:51;;;;;;;2.62;0.90;;;;;;;;;;1880066;76;26658;-89
2022/08/10 14:40:20;;;;;;;2.83;1.05;;;;;;;;;;1891919;74;26311;-87
2022/08/10 14:42:51;;;;;;;4.25;1.17;;;;;;;;;;1897429;75;26231;-88
2022/08/10 14:45:23;;;;;;;1.57;0.90;;;;;;;;;;1895837;76;26283;-89
2022/08/10 14:47:52;;;;;;;3.20;0.88;;;;;;;;;;1881121;74;26294;-89
2022/08/10 14:50:21;;;;;;;1.07;1.07;;;;;;;;;;1894978;75;26216;-87
2022/08/10 14:52:49;;;;;;;5.42;1.20;;;;;;;;;;1882281;76;26310;-90
2022/08/10 14:55:17;;;;;;;3.17;1.00;;;;;;;;;;1868815;76;26263;-87
2022/08/10 14:57:45;;;;;;;0.93;0.90;;;;;;;;;;1896680;75;26788;-88
2022/08/10 15:00:13;;;;;;;1.22;0.93;;;;;;;;;;1889056;74;26304;-89
2022/08/10 15:02:42;;;;;;;1.70;0.90;;;;;;;;;;1889365;76;26262;-88
2022/08/10 15:05:09;;;;;;;1.20;0.90;;;;;;;;;;1874076;76;26506;-88
2022/08/10 15:07:37;;;;;;;2.27;1.10;;;;;;;;;;1872520;74;26750;-87